Time;durP1;ratioP1;P1;durP2;ratioP2;P2;SDS_P1;SDS_P2;PMS_P1;PMS_P2;Temp;Humidity;BMP_temperature;BMP_pressure;BME280_temperature;BME280_humidity;BME280_pressure;Samples;Min_cycle;Max_cycle;Signal;HPM_P1;HPM_P2
2023/08/25 00:00:41;;;;;;;7.72;6.97;;;;;;;-146.82;100.00;71671.09;5092934;28;20036;-81
2023/08/25 00:03:18;;;;;;;8.65;6.90;;;;;;;-146.82;100.00;71671.09;5092620;28;20552;-79
2023/08/25 00:05:45;;;;;;;9.02;7.15;;;;;;;-146.82;100.00;71671.09;5092266;28;20040;-80
2023/08/25 00:08:16;;;;;;;7.75;6.68;;;;;;;-146.82;100.00;71671.09;5092854;28;20097;-79
2023/08/25 00:10:49;;;;;;;9.38;7.18;;;;;;;-146.82;100.00;71671.09;5092759;28;20059;-80
2023/08/25 00:13:15;;;;;;;8.40;7.50;;;;;;;-146.82;100.00;71671.09;5092807;28;20099;-80
2023/08/25 00:15:42;;;;;;;14.63;7.78;;;;;;;-146.82;100.00;71671.09;5107617;28;20060;-80
2023/08/25 00:18:07;;;;;;;8.93;7.80;;;;;;;-146.82;100.00;71671.09;5092398;28;20020;-81
2023/08/25 00:20:33;;;;;;;9.20;7.28;;;;;;;-146.82;100.00;71671.09;5108104;28;20020;-79
2023/08/25 00:22:59;;;;;;;8.98;7.50;;;;;;;-146.82;100.00;71671.09;5092371;28;20028;-79
2023/08/25 00:25:25;;;;;;;9.07;8.02;;;;;;;-146.82;100.00;71671.09;5092639;28;20217;-80
2023/08/25 00:27:50;;;;;;;9.88;7.70;;;;;;;-146.82;100.00;71671.09;5107169;28;20392;-81
2023/08/25 00:30:17;;;;;;;10.40;8.75;;;;;;;-146.82;100.00;71671.09;5093321;28;20027;-80
2023/08/25 00:32:43;;;;;;;10.50;7.78;;;;;;;-146.82;100.00;71671.09;5093476;28;20031;-80
2023/08/25 00:35:10;;;;;;;8.77;7.85;;;;;;;-146.82;100.00;71671.09;5093068;28;20476;-80
2023/08/25 00:37:35;;;;;;;9.63;7.72;;;;;;;-146.82;100.00;71671.09;5091913;28;20568;-81
2023/08/25 00:40:00;;;;;;;7.93;7.10;;;;;;;-146.82;100.00;71671.09;5093405;28;20162;-80
2023/08/25 00:42:27;;;;;;;10.63;8.05;;;;;;;-146.82;100.00;71671.09;5093747;28;20020;-80
2023/08/25 00:44:54;;;;;;;9.82;8.40;;;;;;;-146.82;100.00;71671.09;5093607;28;20048;-80
2023/08/25 00:47:21;;;;;;;12.05;8.07;;;;;;;-146.82;100.00;71671.09;5093523;28;20035;-80
2023/08/25 00:49:53;;;;;;;9.75;8.02;;;;;;;-146.82;100.00;71671.09;5109151;28;20024;-79
2023/08/25 00:52:20;;;;;;;9.52;8.20;;;;;;;-146.82;100.00;71671.09;5093293;28;20024;-80
2023/08/25 00:54:49;;;;;;;9.60;8.70;;;;;;;-146.82;100.00;71671.09;5093581;28;20073;-80
2023/08/25 00:57:16;;;;;;;9.65;8.57;;;;;;;-146.82;100.00;71671.09;5091797;28;20116;-80
2023/08/25 00:59:45;;;;;;;11.10;9.15;;;;;;;-146.82;100.00;71671.09;5108933;28;20024;-80
2023/08/25 01:02:12;;;;;;;12.07;9.18;;;;;;;-146.82;100.00;71671.09;5092176;28;20095;-80
2023/08/25 01:04:39;;;;;;;11.52;9.13;;;;;;;-146.82;100.00;71671.09;5091824;28;20028;-81
2023/08/25 01:07:05;;;;;;;10.15;9.00;;;;;;;-146.82;100.00;71671.09;5091454;28;20101;-80
2023/08/25 01:09:36;;;;;;;10.50;9.25;;;;;;;-146.82;100.00;71671.09;5091592;28;20032;-81
2023/08/25 01:12:09;;;;;;;12.00;9.88;;;;;;;-146.82;100.00;71671.09;5075056;28;20036;-80
2023/08/25 01:14:53;;;;;;;11.13;9.27;;;;;;;-146.82;100.00;71671.09;5091913;28;20040;-80
2023/08/25 01:17:38;;;;;;;12.80;9.65;;;;;;;-146.82;100.00;71671.09;5092972;28;20027;-81
2023/08/25 01:20:08;;;;;;;10.75;8.82;;;;;;;-146.82;100.00;71671.09;5093405;28;20056;-81
2023/08/25 01:23:04;;;;;;;11.27;9.18;;;;;;;-146.82;100.00;71671.09;5108432;28;20024;-80
2023/08/25 01:25:30;;;;;;;17.27;9.95;;;;;;;-146.82;100.00;71671.09;5108525;28;20044;-82
2023/08/25 01:28:04;;;;;;;14.55;10.27;;;;;;;-146.82;100.00;71671.09;5093231;28;20103;-81
2023/08/25 01:30:32;;;;;;;14.30;9.60;;;;;;;-146.82;100.00;71671.09;5106988;28;20035;-80
2023/08/25 01:32:59;;;;;;;13.60;11.52;;;;;;;-146.82;100.00;71671.09;5093956;28;20028;-80
2023/08/25 01:35:38;;;;;;;19.90;10.38;;;;;;;-146.82;100.00;71671.09;5092944;28;20024;-80
2023/08/25 01:38:40;;;;;;;18.67;9.38;;;;;;;-146.82;100.00;71671.09;5094430;28;20032;-80
2023/08/25 01:41:29;;;;;;;12.88;9.90;;;;;;;-146.82;100.00;71671.09;5076770;28;20492;-80
2023/08/25 01:43:55;;;;;;;12.27;10.20;;;;;;;-146.82;100.00;71671.09;5091534;28;20048;-81
2023/08/25 01:46:23;;;;;;;12.15;9.55;;;;;;;-146.82;100.00;71671.09;5110846;28;20557;-80
2023/08/25 01:48:51;;;;;;;14.90;10.45;;;;;;;-146.82;100.00;71671.09;5094308;28;20163;-80
2023/08/25 01:51:17;;;;;;;17.25;10.80;;;;;;;-146.82;100.00;71671.09;5094504;28;20097;-80
2023/08/25 01:53:54;;;;;;;12.10;10.15;;;;;;;-146.82;100.00;71671.09;5094000;28;20031;-81
2023/08/25 01:56:21;;;;;;;12.23;10.38;;;;;;;-146.82;100.00;71671.09;5093706;28;20396;-81
2023/08/25 01:58:46;;;;;;;13.45;10.75;;;;;;;-146.82;100.00;71671.09;5094223;28;20032;-80
2023/08/25 02:01:16;;;;;;;13.95;11.10;;;;;;;-146.82;100.00;71671.09;5095041;28;20049;-79
2023/08/25 02:03:42;;;;;;;13.27;10.80;;;;;;;-146.82;100.00;71671.09;5093069;28;20035;-80
2023/08/25 02:06:10;;;;;;;12.60;11.32;;;;;;;-146.82;100.00;71671.09;5095498;28;20043;-81
2023/08/25 02:08:36;;;;;;;16.63;10.55;;;;;;;-146.82;100.00;71671.09;5110306;28;20027;-80
2023/08/25 02:11:10;;;;;;;16.33;11.63;;;;;;;-146.82;100.00;71671.09;5110393;28;20024;-81
2023/08/25 02:13:35;;;;;;;18.63;11.40;;;;;;;-146.82;100.00;71671.09;5095201;28;20073;-81
2023/08/25 02:16:04;;;;;;;13.10;11.07;;;;;;;-146.82;100.00;71671.09;5093239;28;20601;-80
2023/08/25 02:18:33;;;;;;;11.48;10.25;;;;;;;-146.82;100.00;71671.09;5094961;28;20381;-80
2023/08/25 02:20:58;;;;;;;12.00;10.27;;;;;;;-146.82;100.00;71671.09;5094685;28;20505;-79
2023/08/25 02:23:24;;;;;;;11.73;10.57;;;;;;;-146.82;100.00;71671.09;5095639;28;20055;-79
2023/08/25 02:25:53;;;;;;;15.60;11.90;;;;;;;-146.82;100.00;71671.09;5095640;28;20449;-80
2023/08/25 02:28:19;;;;;;;14.60;10.45;;;;;;;-146.82;100.00;71671.09;5095923;28;20024;-80
2023/08/25 02:30:46;;;;;;;14.25;10.43;;;;;;;-146.82;100.00;71671.09;5094443;28;20043;-80
2023/08/25 02:33:13;;;;;;;12.82;10.30;;;;;;;-146.82;100.00;71671.09;5111360;28;20028;-79
2023/08/25 02:35:39;;;;;;;13.07;10.25;;;;;;;-146.82;100.00;71671.09;5094209;28;20415;-79
2023/08/25 02:38:07;;;;;;;14.13;10.45;;;;;;;-146.82;100.00;71671.09;5095597;28;20024;-81
2023/08/25 02:40:34;;;;;;;19.73;11.77;;;;;;;-146.82;100.00;71671.09;5094011;28;20031;-79
2023/08/25 02:43:16;;;;;;;12.35;10.18;;;;;;;-146.82;100.00;71671.09;5110566;28;20047;-80
2023/08/25 02:45:42;;;;;;;;;;;;;;;-146.82;100.00;71671.09;5095933;28;20027;-82
2023/08/25 02:48:08;;;;;;;14.10;10.30;;;;;;;-146.82;100.00;71671.09;5095624;28;20260;-81
2023/08/25 02:50:42;;;;;;;14.52;9.93;;;;;;;-146.82;100.00;71671.09;5095107;28;20457;-81
2023/08/25 02:53:08;;;;;;;11.15;9.85;;;;;;;-146.82;100.00;71671.09;5110131;28;20110;-79
2023/08/25 02:55:35;;;;;;;16.10;9.93;;;;;;;-146.82;100.00;71671.09;5095440;28;20019;-81
2023/08/25 02:58:01;;;;;;;14.27;9.90;;;;;;;-146.82;100.00;71671.09;5094402;28;20024;-81
2023/08/25 03:00:27;;;;;;;11.60;10.40;;;;;;;-146.82;100.00;71671.09;5095242;28;20020;-81
2023/08/25 03:02:54;;;;;;;16.65;10.75;;;;;;;-146.82;100.00;71671.09;5093753;28;20020;-81
2023/08/25 03:05:21;;;;;;;12.68;10.63;;;;;;;-146.82;100.00;71671.09;5092246;28;20557;-80
2023/08/25 03:07:50;;;;;;;12.27;9.80;;;;;;;-146.82;100.00;71671.09;5110382;28;20389;-81
2023/08/25 03:10:37;;;;;;;13.23;9.55;;;;;;;;;;5070823;28;20379;-80
2023/08/25 03:13:12;;;;;;;16.17;9.98;;;;;;;;;;5070716;28;20453;-81
2023/08/25 03:15:38;;;;;;;15.57;10.07;;;;;;;;;;5070601;28;20373;-81
2023/08/25 03:18:03;;;;;;;12.67;9.87;;;;;;;;;;5070609;28;20016;-81
2023/08/25 03:20:29;;;;;;;14.30;9.88;;;;;;;;;;5069231;28;20275;-81
2023/08/25 03:22:57;;;;;;;12.18;10.18;;;;;;;;;;5070504;28;20021;-80
2023/08/25 03:25:24;;;;;;;14.55;10.07;;;;;;;;;;5070823;28;20016;-81
2023/08/25 03:27:50;;;;;;;11.20;9.48;;;;;;;;;;5070386;28;20412;-81
2023/08/25 03:30:17;;;;;;;17.65;9.80;;;;;;;;;;5070082;28;20041;-81
2023/08/25 03:32:42;;;;;;;13.25;9.95;;;;;;;;;;5070589;28;20115;-81
2023/08/25 03:35:08;;;;;;;13.10;9.73;;;;;;;;;;5070250;28;20079;-80
2023/08/25 03:37:34;;;;;;;12.15;9.88;;;;;;;;;;5070168;28;20270;-81
2023/08/25 03:40:01;;;;;;;17.10;9.85;;;;;;;;;;5070276;28;20028;-80
2023/08/25 03:42:26;;;;;;;14.00;9.98;;;;;;;;;;5070393;28;20041;-81
2023/08/25 03:44:56;;;;;;;15.03;10.73;;;;;;;;;;5072102;28;20071;-80
2023/08/25 03:47:23;;;;;;;10.80;9.65;;;;;;;;;;5070230;28;20321;-80
2023/08/25 03:49:50;;;;;;;13.07;10.00;;;;;;;;;;5069957;28;20040;-81
2023/08/25 03:52:16;;;;;;;13.98;10.80;;;;;;;;;;5070102;28;20381;-81
2023/08/25 03:54:42;;;;;;;12.82;10.52;;;;;;;;;;5068712;28;20021;-81
2023/08/25 03:57:08;;;;;;;13.88;10.23;;;;;;;;;;5069968;28;20020;-82
2023/08/25 03:59:35;;;;;;;10.18;9.15;;;;;;;;;;5069615;28;20033;-80
2023/08/25 04:02:03;;;;;;;15.03;10.27;;;;;;;;;;5069555;28;20036;-82
2023/08/25 04:04:31;;;;;;;15.05;9.48;;;;;;;;;;5069552;28;20546;-80
2023/08/25 04:06:58;;;;;;;11.73;9.88;;;;;;;;;;5068327;28;20458;-80
2023/08/25 04:09:23;;;;;;;13.02;10.77;;;;;;;;;;5069309;28;20041;-80
2023/08/25 04:11:50;;;;;;;10.48;9.43;;;;;;;;;;5068042;28;20454;-80
2023/08/25 04:14:15;;;;;;;16.60;9.52;;;;;;;;;;5069848;28;20021;-81
2023/08/25 04:16:41;;;;;;;16.50;10.57;;;;;;;;;;5069530;28;20025;-82
2023/08/25 04:19:08;;;;;;;12.68;10.00;;;;;;;;;;5069659;28;20039;-80
2023/08/25 04:21:35;;;;;;;12.73;9.68;;;;;;;;;;5058029;28;20047;-82
2023/08/25 04:24:00;;;;;;;13.30;9.60;;;;;;;;;;5056381;28;20066;-81
2023/08/25 04:26:25;;;;;;;12.30;9.67;;;;;;;;;;5055838;28;20112;-83
2023/08/25 04:28:52;;;;;;;11.90;9.60;;;;;;;;;;5055903;28;20279;-81
2023/08/25 04:31:17;;;;;;;12.45;9.88;;;;;;;;;;5055972;28;20017;-80
2023/08/25 04:33:43;;;;;;;14.07;9.88;;;;;;;;;;5056410;28;20028;-79
2023/08/25 04:36:20;;;;;;;12.85;10.13;;;;;;;;;;5056265;28;20100;-81
2023/08/25 04:38:46;;;;;;;13.23;9.23;;;;;;;;;;5055887;28;20041;-80
2023/08/25 04:41:11;;;;;;;12.25;8.95;;;;;;;;;;5055566;28;20055;-81
2023/08/25 04:43:37;;;;;;;11.83;8.60;;;;;;;;;;5055207;28;20065;-81
2023/08/25 04:46:03;;;;;;;12.30;8.90;;;;;;;;;;5055704;28;20263;-83
2023/08/25 04:48:28;;;;;;;12.20;8.70;;;;;;;;;;5055895;28;20278;-82
2023/08/25 04:50:56;;;;;;;11.90;8.80;;;;;;;;;;5055711;28;20013;-81
2023/08/25 04:53:22;;;;;;;13.73;9.02;;;;;;;;;;5055322;28;20370;-81
2023/08/25 04:55:48;;;;;;;11.88;8.93;;;;;;;;;;5053756;28;20021;-81
2023/08/25 04:58:14;;;;;;;14.88;8.57;;;;;;;;;;5055697;28;20041;-80
2023/08/25 05:00:42;;;;;;;14.45;9.13;;;;;;;;;;5055670;28;20482;-81
2023/08/25 05:03:07;;;;;;;14.75;9.00;;;;;;;;;;5055811;28;20025;-82
2023/08/25 05:05:38;;;;;;;10.55;8.60;;;;;;;;;;5054391;28;20067;-81
2023/08/25 05:08:04;;;;;;;12.98;8.93;;;;;;;;;;5054300;28;20044;-77
2023/08/25 05:10:30;;;;;;;10.48;8.40;;;;;;;;;;5055081;28;20482;-76
2023/08/25 05:12:56;;;;;;;20.17;9.48;;;;;;;;;;5055366;28;20059;-73
2023/08/25 05:15:21;;;;;;;11.13;8.35;;;;;;;;;;5055346;28;20048;-73
2023/08/25 05:17:47;;;;;;;14.23;9.23;;;;;;;;;;5055506;28;20013;-73
2023/08/25 05:20:20;;;;;;;14.03;9.33;;;;;;;;;;5056134;28;20486;-76
2023/08/25 05:22:50;;;;;;;11.90;9.45;;;;;;;;;;5053876;28;20271;-85
2023/08/25 05:25:31;;;;;;;13.15;8.65;;;;;;;;;;5037705;28;20036;-82
2023/08/25 05:27:57;;;;;;;13.35;8.95;;;;;;;;;;5055822;28;20056;-77
2023/08/25 05:30:24;;;;;;;16.38;8.77;;;;;;;;;;5055391;28;20028;-76
2023/08/25 05:32:50;;;;;;;15.23;8.18;;;;;;;;;;5053899;28;20025;-82
2023/08/25 05:35:17;;;;;;;15.82;9.32;;;;;;;;;;5054854;28;20028;-77
2023/08/25 05:37:43;;;;;;;10.13;8.95;;;;;;;;;;5064668;28;20092;-79
2023/08/25 05:40:09;;;;;;;11.27;8.60;;;;;;;;;;5069710;28;20017;-78
2023/08/25 05:42:37;;;;;;;13.32;7.97;;;;;;;;;;5075362;28;20259;-78
2023/08/25 05:45:09;;;;;;;19.08;8.95;;;;;;;;;;5058903;28;20025;-78
2023/08/25 05:47:43;;;;;;;15.23;8.60;;;;;;;;;;5054223;28;20031;-77
2023/08/25 05:50:09;;;;;;;11.77;8.52;;;;;;;;;;5044084;28;20034;-77
2023/08/25 05:52:34;;;;;;;14.95;8.65;;;;;;;;;;5033297;28;20098;-77
2023/08/25 05:55:00;;;;;;;16.08;8.52;;;;;;;;;;5033016;28;20464;-78
2023/08/25 05:57:27;;;;;;;12.07;8.33;;;;;;;;;;5031925;28;20026;-78
2023/08/25 05:59:55;;;;;;;14.15;9.20;;;;;;;;;;5039133;28;20795;-78
2023/08/25 06:02:22;;;;;;;15.57;8.65;;;;;;;;;;5036567;28;20026;-78
2023/08/25 06:04:48;;;;;;;13.70;8.73;;;;;;;;;;5033568;28;20061;-78
2023/08/25 06:07:13;;;;;;;11.83;8.50;;;;;;;;;;5034058;28;20026;-77
2023/08/25 06:09:38;;;;;;;18.93;8.37;;;;;;;;;;5033811;28;20296;-77
2023/08/25 06:12:05;;;;;;;13.32;7.80;;;;;;;;;;5033338;28;20783;-79
2023/08/25 06:14:32;;;;;;;12.85;8.13;;;;;;;;;;5034151;28;20028;-80
2023/08/25 06:16:58;;;;;;;12.73;7.80;;;;;;;;;;5049261;28;20071;-82
2023/08/25 06:19:24;;;;;;;11.32;8.18;;;;;;;;;;5051834;28;20028;-83
2023/08/25 06:21:50;;;;;;;14.30;8.30;;;;;;;;;;5051126;28;20024;-83
2023/08/25 06:24:16;;;;;;;16.88;7.38;;;;;;;;;;5051106;28;20630;-79
2023/08/25 06:26:43;;;;;;;11.90;7.93;;;;;;;;;;5050750;28;20458;-81
2023/08/25 06:29:16;;;;;;;9.45;7.13;;;;;;;;;;5051420;28;20071;-83
2023/08/25 06:31:47;;;;;;;11.43;7.25;;;;;;;;;;5051510;28;20508;-81
2023/08/25 06:34:14;;;;;;;12.50;7.40;;;;;;;;;;5052598;28;20055;-82
2023/08/25 06:36:47;;;;;;;10.85;6.07;;;;;;;;;;5051243;28;20523;-81
2023/08/25 06:39:22;;;;;;;8.10;6.00;;;;;;;;;;5051197;28;20044;-82
2023/08/25 06:41:47;;;;;;;12.32;6.22;;;;;;;;;;5052560;28;20108;-82
2023/08/25 06:44:19;;;;;;;8.95;6.72;;;;;;;;;;5052432;28;20096;-82
2023/08/25 06:46:48;;;;;;;15.05;6.22;;;;;;;;;;5053005;28;20070;-83
2023/08/25 06:49:13;;;;;;;11.43;5.67;;;;;;;;;;5054468;28;20381;-82
2023/08/25 06:51:39;;;;;;;9.53;5.80;;;;;;;;;;5035685;28;20025;-77
2023/08/25 06:54:05;;;;;;;6.68;5.95;;;;;;;;;;5053359;28;20287;-77
2023/08/25 06:56:31;;;;;;;12.13;5.57;;;;;;;;;;5053229;28;20044;-77
2023/08/25 06:58:57;;;;;;;9.65;5.97;;;;;;;;;;5053404;28;20267;-77
2023/08/25 07:01:25;;;;;;;8.40;5.60;;;;;;;;;;5051810;28;20402;-77
2023/08/25 07:04:05;;;;;;;18.38;5.93;;;;;;;;;;5053402;28;20095;-78
2023/08/25 07:06:31;;;;;;;12.65;5.38;;;;;;;;;;5053368;28;20044;-77
2023/08/25 07:08:56;;;;;;;10.93;5.43;;;;;;;;;;5052781;28;20398;-76
2023/08/25 07:11:21;;;;;;;9.40;5.43;;;;;;;;;;5035161;28;20569;-77
2023/08/25 07:13:47;;;;;;;11.88;5.07;;;;;;;;;;5052612;28;20096;-83
2023/08/25 07:16:18;;;;;;;5.07;4.50;;;;;;;;;;5051103;28;20088;-79
2023/08/25 07:18:45;;;;;;;8.18;4.65;;;;;;;;;;5053190;28;20070;-78
2023/08/25 07:21:11;;;;;;;7.72;5.20;;;;;;;;;;5053418;28;20017;-79
2023/08/25 07:23:44;;;;;;;10.20;4.75;;;;;;;;;;5057318;28;20017;-78
2023/08/25 07:26:10;;;;;;;29.73;6.43;;;;;;;;;;5073271;28;20013;-78
2023/08/25 07:28:35;;;;;;;8.07;4.53;;;;;;;;;;5067645;28;20033;-80
2023/08/25 07:31:01;;;;;;;6.80;4.30;;;;;;;;;;5052910;28;20024;-81
2023/08/25 07:33:26;;;;;;;9.50;4.75;;;;;;;;;;5051859;28;20535;-76
2023/08/25 07:35:52;;;;;;;7.38;4.57;;;;;;;;;;5051591;28;20023;-77
2023/08/25 07:38:17;;;;;;;6.10;5.00;;;;;;;;;;5038999;28;20466;-77
2023/08/25 07:40:42;;;;;;;9.93;5.10;;;;;;;;;;5045137;28;20048;-77
2023/08/25 07:43:08;;;;;;;9.27;4.37;;;;;;;;;;5045291;28;20275;-78
2023/08/25 07:45:35;;;;;;;8.40;4.03;;;;;;;;;;5031967;28;20343;-78
2023/08/25 07:48:12;;;;;;;7.05;4.10;;;;;;;;;;5032685;28;20425;-77
2023/08/25 07:50:37;;;;;;;6.20;4.22;;;;;;;;;;5043443;28;20157;-77
2023/08/25 07:53:02;;;;;;;5.10;4.20;;;;;;;;;;5051546;28;20074;-78
2023/08/25 07:55:30;;;;;;;4.68;3.83;;;;;;;;;;5038800;28;20025;-78
2023/08/25 07:57:57;;;;;;;9.23;3.73;;;;;;;;;;5037530;28;20025;-78
2023/08/25 08:00:26;;;;;;;6.32;4.07;;;;;;;;;;5040948;28;20275;-77
2023/08/25 08:02:55;;;;;;;6.30;3.83;;;;;;;;;;5057772;28;20033;-78
2023/08/25 08:05:20;;;;;;;10.63;3.95;;;;;;;;;;5036607;28;20021;-79
2023/08/25 08:07:48;;;;;;;7.00;4.60;;;;;;;;;;5052592;28;20108;-79
2023/08/25 08:10:14;;;;;;;6.00;3.60;;;;;;;;;;5056348;28;20040;-78
2023/08/25 08:12:41;;;;;;;5.45;3.53;;;;;;;;;;5056433;28;20454;-79
2023/08/25 08:15:10;;;;;;;8.48;3.60;;;;;;;;;;5055072;28;20048;-77
2023/08/25 08:17:35;;;;;;;127.03;39.72;;;;;;;;;;5055033;28;20424;-77
2023/08/25 08:20:05;;;;;;;12.57;6.85;;;;;;;;;;5054661;28;20120;-77
2023/08/25 08:22:33;;;;;;;5.57;3.45;;;;;;;;;;5056063;28;20485;-78
2023/08/25 08:24:59;;;;;;;6.50;4.25;;;;;;;;;;5056147;28;20024;-78
2023/08/25 08:27:28;;;;;;;7.28;3.70;;;;;;;;;;5054718;28;20023;-77
2023/08/25 08:29:53;;;;;;;12.65;4.70;;;;;;;;;;5056122;28;20027;-78
2023/08/25 08:32:21;;;;;;;5.73;3.70;;;;;;;;;;5055946;28;20098;-77
2023/08/25 08:34:49;;;;;;;7.63;3.90;;;;;;;;;;5055596;28;20381;-78
2023/08/25 08:37:17;;;;;;;7.03;4.10;;;;;;;;;;5056045;28;20013;-79
2023/08/25 08:39:44;;;;;;;20.45;5.03;;;;;;;;;;5055836;28;20051;-78
2023/08/25 08:42:16;;;;;;;10.30;4.47;;;;;;;;;;5054469;28;20104;-78
2023/08/25 08:44:44;;;;;;;10.98;4.82;;;;;;;;;;5053308;28;20025;-79
2023/08/25 08:47:14;;;;;;;9.85;4.15;;;;;;;;;;5055232;28;20021;-77
2023/08/25 08:49:50;;;;;;;7.00;3.55;;;;;;;;;;5055650;28;20071;-79
2023/08/25 08:52:17;;;;;;;10.65;4.22;;;;;;;;;;5049039;28;20463;-78
2023/08/25 08:54:44;;;;;;;12.45;3.80;;;;;;;;;;5056213;28;20029;-79
2023/08/25 08:57:11;;;;;;;3.80;3.47;;;;;;;;;;5053140;28;20020;-78
2023/08/25 08:59:38;;;;;;;7.93;3.33;;;;;;;;;;5053972;28;20052;-79
2023/08/25 09:02:04;;;;;;;5.75;2.75;;;;;;;;;;5054074;28;20025;-78
2023/08/25 09:04:29;;;;;;;16.52;3.40;;;;;;;;;;5054244;28;20023;-78
2023/08/25 09:06:57;;;;;;;4.88;3.17;;;;;;;;;;5054156;28;20611;-77
2023/08/25 09:09:26;;;;;;;8.88;3.08;;;;;;;;;;5052074;28;20079;-78
2023/08/25 09:11:53;;;;;;;6.43;3.10;;;;;;;;;;5055299;28;20013;-79
2023/08/25 09:14:26;;;;;;;7.40;3.10;;;;;;;;;;5055410;28;20088;-79
2023/08/25 09:16:55;;;;;;;4.28;2.70;;;;;;;;;;5054273;28;20048;-78
2023/08/25 09:19:22;;;;;;;4.05;3.00;;;;;;;;;;5053936;28;20486;-78
2023/08/25 09:21:50;;;;;;;5.93;2.78;;;;;;;;;;5053582;28;20032;-80
2023/08/25 09:24:22;;;;;;;5.43;3.10;;;;;;;;;;5055095;28;20077;-79
2023/08/25 09:26:50;;;;;;;4.78;2.63;;;;;;;;;;5055111;28;20020;-78
2023/08/25 09:29:16;;;;;;;9.07;3.33;;;;;;;;;;5045688;28;20496;-80
2023/08/25 09:31:43;;;;;;;5.20;3.03;;;;;;;;;;5034773;28;20348;-78
2023/08/25 09:34:10;;;;;;;10.95;3.35;;;;;;;;;;5033270;28;20013;-90
2023/08/25 09:36:58;;;;;;;5.28;3.08;;;;;;;;;;5036706;28;20029;-82
2023/08/25 09:39:23;;;;;;;18.40;5.57;;;;;;;;;;5037877;28;20025;-82
2023/08/25 09:41:49;;;;;;;8.33;2.47;;;;;;;;;;5042993;28;20040;-83
2023/08/25 09:44:16;;;;;;;7.00;2.50;;;;;;;;;;5045277;28;20280;-83
2023/08/25 09:46:42;;;;;;;8.50;2.78;;;;;;;;;;5041074;28;20471;-85
2023/08/25 09:49:10;;;;;;;9.40;2.83;;;;;;;;;;5036156;28;20060;-84
2023/08/25 09:51:43;;;;;;;13.88;4.03;;;;;;;;;;5035641;28;20494;-83
2023/08/25 09:54:10;;;;;;;6.25;2.75;;;;;;;;;;5034706;28;20447;-81
2023/08/25 09:56:36;;;;;;;6.90;3.08;;;;;;;;;;5034979;28;20018;-83
2023/08/25 09:59:03;;;;;;;20.02;3.97;;;;;;;;;;5035108;28;20022;-83
2023/08/25 10:01:31;;;;;;;12.35;3.00;;;;;;;;;;5035038;28;20020;-83
2023/08/25 10:03:58;;;;;;;5.05;3.35;;;;;;;;;;5034846;28;20017;-81
2023/08/25 10:06:24;;;;;;;3.72;2.67;;;;;;;;;;5034343;28;20100;-81
2023/08/25 10:08:49;;;;;;;4.70;2.60;;;;;;;;;;5034173;28;20049;-83
2023/08/25 10:11:16;;;;;;;8.82;2.92;;;;;;;;;;5034075;28;20021;-88
2023/08/25 10:13:44;;;;;;;4.47;3.40;;;;;;;;;;5034505;28;20017;-84
2023/08/25 10:16:10;;;;;;;8.10;2.88;;;;;;;;;;5034541;28;20025;-86
2023/08/25 10:18:38;;;;;;;4.47;2.55;;;;;;;;;;5034286;28;20029;-87
2023/08/25 10:21:06;;;;;;;6.18;2.85;;;;;;;;;;5034655;28;20016;-85
2023/08/25 10:23:33;;;;;;;6.57;2.97;;;;;;;;;;5033009;28;20079;-85
2023/08/25 10:25:58;;;;;;;12.32;3.00;;;;;;;;;;5033149;28;20075;-86
2023/08/25 10:28:25;;;;;;;8.27;2.78;;;;;;;;;;5033862;28;20041;-85
2023/08/25 10:30:53;;;;;;;6.75;2.40;;;;;;;;;;5034368;28;20029;-85
2023/08/25 10:33:18;;;;;;;4.25;2.53;;;;;;;;;;5034413;28;20044;-87
2023/08/25 10:35:47;;;;;;;21.47;3.60;;;;;;;;;;5034325;28;20435;-86
2023/08/25 10:38:18;;;;;;;5.70;3.15;;;;;;;;;;5033877;28;20014;-87
2023/08/25 10:40:50;;;;;;;8.68;3.25;;;;;;;;;;5033866;28;20032;-86
2023/08/25 10:43:31;;;;;;;9.27;2.78;;;;;;;;;;5032579;28;20470;-85
2023/08/25 10:45:56;;;;;;;5.63;2.70;;;;;;;;;;5033984;28;20036;-84
2023/08/25 10:48:26;;;;;;;4.78;3.10;;;;;;;;;;5032818;28;20112;-85
2023/08/25 10:50:52;;;;;;;9.07;2.80;;;;;;;;;;5033499;28;20466;-84
2023/08/25 10:53:36;;;;;;;5.53;2.70;;;;;;;;;;5034022;28;20083;-86
2023/08/25 10:56:14;;;;;;;5.85;2.90;;;;;;;;;;5034381;28;20025;-85
2023/08/25 10:58:39;;;;;;;9.05;2.53;;;;;;;;;;5033429;28;20036;-82
2023/08/25 11:01:08;;;;;;;9.73;3.13;;;;;;;;;;5033025;28;20037;-86
2023/08/25 11:03:47;;;;;;;5.18;2.97;;;;;;;;;;5034179;28;20403;-85
2023/08/25 11:06:33;;;;;;;8.98;2.60;;;;;;;;;;5033113;28;20052;-87
2023/08/25 11:08:59;;;;;;;5.97;2.70;;;;;;;;;;5033765;28;20046;-85
2023/08/25 11:11:25;;;;;;;5.50;2.88;;;;;;;;;;5033487;28;20354;-85
2023/08/25 11:13:53;;;;;;;4.90;2.70;;;;;;;;;;5033161;28;20528;-85
2023/08/25 11:16:23;;;;;;;4.88;2.70;;;;;;;;;;5033973;28;20064;-86
2023/08/25 11:18:49;;;;;;;6.70;3.00;;;;;;;;;;5033560;28;20463;-83
2023/08/25 11:21:15;;;;;;;4.22;2.70;;;;;;;;;;5033859;28;20414;-86
2023/08/25 11:23:44;;;;;;;10.33;2.83;;;;;;;;;;5034197;28;20459;-85
2023/08/25 11:26:28;;;;;;;8.48;3.67;;;;;;;;;;5034956;28;20267;-84
2023/08/25 11:28:53;;;;;;;7.28;2.95;;;;;;;;;;5032757;28;20022;-85
2023/08/25 11:31:23;;;;;;;7.30;2.63;;;;;;;;;;5035677;28;20024;-83
2023/08/25 11:33:51;;;;;;;4.85;2.60;;;;;;;;;;5036243;28;20036;-85
2023/08/25 11:36:17;;;;;;;6.38;3.10;;;;;;;;;;5055339;28;20032;-81
2023/08/25 11:38:48;;;;;;;4.68;2.53;;;;;;;;;;5050672;28;20025;-84
2023/08/25 11:41:17;;;;;;;5.68;2.58;;;;;;;;;;5051507;28;20033;-81
2023/08/25 11:43:47;;;;;;;4.97;3.05;;;;;;;;;;5055163;28;20029;-82
2023/08/25 11:46:13;;;;;;;28.43;4.90;;;;;;;;;;5051835;28;20021;-82
2023/08/25 11:48:40;;;;;;;6.55;2.80;;;;;;;;;;5048090;28;20279;-82
2023/08/25 11:51:05;;;;;;;7.85;2.90;;;;;;;;;;5047674;28;20029;-85
2023/08/25 11:53:32;;;;;;;7.03;2.90;;;;;;;;;;5037239;28;20360;-86
2023/08/25 11:56:01;;;;;;;5.53;3.03;;;;;;;;;;5046674;28;20017;-82
2023/08/25 11:58:45;;;;;;;5.18;2.70;;;;;;;;;;5057784;28;20049;-86
2023/08/25 12:01:11;;;;;;;2.50;2.30;;;;;;;;;;5057657;28;20024;-82
2023/08/25 12:03:37;;;;;;;6.90;2.85;;;;;;;;;;5039797;28;20043;-82
2023/08/25 12:06:06;;;;;;;5.20;2.90;;;;;;;;;;5064905;28;20389;-82
2023/08/25 12:08:33;;;;;;;7.63;2.88;;;;;;;;;;5055588;28;20462;-82
2023/08/25 12:10:59;;;;;;;4.55;2.30;;;;;;;;;;5055545;28;20024;-82
2023/08/25 12:13:44;;;;;;;5.40;2.97;;;;;;;;;;5055158;28;20036;-83
2023/08/25 12:16:13;;;;;;;7.82;2.90;;;;;;;;;;5055820;28;20036;-84
2023/08/25 12:18:42;;;;;;;9.38;3.05;;;;;;;;;;5055332;28;20029;-85
2023/08/25 12:21:16;;;;;;;4.40;2.70;;;;;;;;;;5056531;28;20013;-85
2023/08/25 12:23:43;;;;;;;2.50;2.13;;;;;;;;;;5055961;28;20032;-83
2023/08/25 12:26:09;;;;;;;5.45;2.72;;;;;;;;;;5056476;28;20036;-84
2023/08/25 12:28:35;;;;;;;3.20;2.58;;;;;;;;;;5055393;28;20025;-82
2023/08/25 12:31:03;;;;;;;8.63;2.53;;;;;;;;;;5056585;28;20074;-85
2023/08/25 12:33:29;;;;;;;3.22;2.58;;;;;;;;;;5056711;28;20037;-85
2023/08/25 12:35:54;;;;;;;4.68;2.28;;;;;;;;;;5056736;28;20028;-85
2023/08/25 12:38:21;;;;;;;4.35;2.70;;;;;;;;;;5058928;28;20027;-86
2023/08/25 12:40:46;;;;;;;4.22;3.08;;;;;;;;;;5054795;28;20125;-84
2023/08/25 12:43:13;;;;;;;5.60;2.30;;;;;;;;;;5054436;28;20048;-84
2023/08/25 12:45:47;;;;;;;6.65;2.75;;;;;;;;;;5056106;28;20021;-84
2023/08/25 12:48:14;;;;;;;5.18;3.08;;;;;;;;;;5056181;28;20021;-83
2023/08/25 12:50:40;;;;;;;4.72;2.70;;;;;;;;;;5056610;28;20120;-84
2023/08/25 12:53:06;;;;;;;7.55;2.60;;;;;;;;;;5056117;28;20025;-87
2023/08/25 12:55:32;;;;;;;5.05;2.90;;;;;;;;;;5056062;28;20077;-88
2023/08/25 12:58:06;;;;;;;5.18;3.38;;;;;;;;;;5056569;28;20032;-88
2023/08/25 13:00:32;;;;;;;5.80;3.00;;;;;;;;;;5055254;28;20457;-88
2023/08/25 13:03:00;;;;;;;6.28;2.88;;;;;;;;;;5057196;28;20034;-86
2023/08/25 13:05:27;;;;;;;4.00;3.40;;;;;;;;;;5038975;28;20029;-88
2023/08/25 13:07:54;;;;;;;3.45;2.58;;;;;;;;;;5056407;28;20025;-87
2023/08/25 13:10:20;;;;;;;6.18;3.20;;;;;;;;;;5073342;28;20064;-86
2023/08/25 13:12:47;;;;;;;5.85;2.78;;;;;;;;;;5079838;28;20077;-84
2023/08/25 13:15:12;;;;;;;3.35;2.47;;;;;;;;;;5079658;28;20040;-81
2023/08/25 13:17:44;;;;;;;8.48;2.70;;;;;;;;;;5059972;28;20048;-78
2023/08/25 13:20:10;;;;;;;5.30;2.78;;;;;;;;;;5053922;28;20025;-78
2023/08/25 13:22:36;;;;;;;5.63;3.05;;;;;;;;;;5053707;28;20104;-79
2023/08/25 13:25:07;;;;;;;5.25;3.45;;;;;;;;;;5053942;28;20029;-77
2023/08/25 13:27:32;;;;;;;9.55;3.00;;;;;;;;;;5053789;28;20036;-78
2023/08/25 13:30:00;;;;;;;4.45;2.40;;;;;;;;;;5053441;28;20378;-77
2023/08/25 13:32:25;;;;;;;9.85;3.10;;;;;;;;;;5053486;28;20025;-77
2023/08/25 13:34:56;;;;;;;8.40;3.13;;;;;;;;;;5053803;28;20032;-78
2023/08/25 13:37:24;;;;;;;5.10;2.90;;;;;;;;;;5053561;28;20017;-76
2023/08/25 13:39:52;;;;;;;6.30;2.80;;;;;;;;;;5053487;28;20039;-77
2023/08/25 13:42:20;;;;;;;7.75;2.83;;;;;;;;;;5053414;28;20059;-79